Time;durP1;ratioP1;P1;durP2;ratioP2;P2;SDS_P1;SDS_P2;PMS_P1;PMS_P2;Temp;Humidity;BMP_temperature;BMP_pressure;BME280_temperature;BME280_humidity;BME280_pressure;Samples;Min_cycle;Max_cycle;Signal;HPM_P1;HPM_P2
2024/04/18 00:01:29;;;;;;;11.25;3.17;;;5.30;99.90;;;;;;5496228;26;20005;-70
2024/04/18 00:03:54;;;;;;;11.95;3.50;;;5.20;99.90;;;;;;5495692;26;19998;-70
2024/04/18 00:06:20;;;;;;;8.20;2.95;;;5.20;99.90;;;;;;5496615;26;19998;-71
2024/04/18 00:08:46;;;;;;;9.90;3.00;;;5.20;99.90;;;;;;5496143;26;20315;-70
2024/04/18 00:11:11;;;;;;;8.90;3.00;;;5.20;99.90;;;;;;5496389;26;19998;-70
2024/04/18 00:13:37;;;;;;;11.70;3.50;;;5.30;99.90;;;;;;5496166;26;20421;-70
2024/04/18 00:16:03;;;;;;;10.57;3.40;;;5.20;99.90;;;;;;5496694;26;20070;-70
2024/04/18 00:18:28;;;;;;;14.57;3.72;;;5.20;99.90;;;;;;5495447;26;20009;-70
2024/04/18 00:20:54;;;;;;;10.77;3.30;;;5.20;99.90;;;;;;5495435;26;20059;-70
2024/04/18 00:23:19;;;;;;;11.02;3.38;;;5.00;99.90;;;;;;5495605;26;20073;-71
2024/04/18 00:25:45;;;;;;;6.95;3.40;;;5.00;99.90;;;;;;5494459;26;20104;-70
2024/04/18 00:28:10;;;;;;;13.90;3.40;;;5.00;99.90;;;;;;5496828;26;20017;-71
2024/04/18 00:30:36;;;;;;;17.75;3.45;;;4.90;99.90;;;;;;5496048;26;19998;-70
2024/04/18 00:33:02;;;;;;;9.95;3.42;;;4.90;99.90;;;;;;5499937;26;19998;-71
2024/04/18 00:35:27;;;;;;;11.63;3.40;;;4.80;99.90;;;;;;5498810;26;20047;-71
2024/04/18 00:37:53;;;;;;;12.63;3.20;;;4.80;99.90;;;;;;5499613;26;19998;-71
2024/04/18 00:40:19;;;;;;;10.90;3.47;;;4.90;99.90;;;;;;5499106;26;19998;-72
2024/04/18 00:42:44;;;;;;;11.75;3.65;;;4.80;99.90;;;;;;5499835;26;20006;-71
2024/04/18 00:45:10;;;;;;;13.00;3.70;;;4.70;99.90;;;;;;5499742;26;19994;-71
2024/04/18 00:47:36;;;;;;;11.10;3.45;;;4.80;99.90;;;;;;5499201;26;19998;-70
2024/04/18 00:50:03;;;;;;;9.65;3.35;;;4.80;99.90;;;;;;5490531;26;19994;-70
2024/04/18 00:52:28;;;;;;;9.50;3.95;;;4.80;99.90;;;;;;5494968;26;20010;-71
2024/04/18 00:54:55;;;;;;;11.73;3.60;;;4.80;99.90;;;;;;5496946;26;19991;-70
2024/04/18 00:57:21;;;;;;;9.57;3.85;;;4.80;99.90;;;;;;5495138;26;20039;-71
2024/04/18 00:59:47;;;;;;;15.77;3.35;;;4.90;99.90;;;;;;5496598;26;19990;-70
2024/04/18 01:02:13;;;;;;;7.65;3.83;;;4.80;99.90;;;;;;5494381;26;20442;-71
2024/04/18 01:04:39;;;;;;;11.82;3.95;;;4.90;99.90;;;;;;5498777;26;20044;-71
2024/04/18 01:07:05;;;;;;;8.68;3.15;;;4.80;99.90;;;;;;5497550;26;20005;-70
2024/04/18 01:09:30;;;;;;;14.25;3.85;;;4.80;99.90;;;;;;5497137;26;20030;-71
2024/04/18 01:11:56;;;;;;;10.57;3.70;;;4.80;99.90;;;;;;5496891;26;19990;-71
2024/04/18 01:14:22;;;;;;;9.77;3.40;;;4.80;99.90;;;;;;5494708;26;19998;-71
2024/04/18 01:16:47;;;;;;;11.30;3.65;;;4.80;99.90;;;;;;5495954;26;20078;-70
2024/04/18 01:19:18;;;;;;;9.45;3.58;;;4.70;99.90;;;;;;5495674;26;20014;-71
2024/04/18 01:21:46;;;;;;;8.77;3.20;;;4.70;99.90;;;;;;5495840;26;19994;-71
2024/04/18 01:24:12;;;;;;;15.80;3.75;;;4.80;99.90;;;;;;5497002;26;20029;-70
2024/04/18 01:26:38;;;;;;;13.88;3.60;;;4.70;99.90;;;;;;5494908;26;20002;-70
2024/04/18 01:29:03;;;;;;;11.32;4.13;;;4.70;99.90;;;;;;5495416;26;20010;-70
2024/04/18 01:31:29;;;;;;;12.57;3.95;;;4.80;99.90;;;;;;5496465;26;20070;-70
2024/04/18 01:33:57;;;;;;;14.00;3.83;;;4.80;99.90;;;;;;5495556;26;20009;-71
2024/04/18 01:36:23;;;;;;;13.15;4.13;;;4.70;99.90;;;;;;5494038;26;20002;-71
2024/04/18 01:38:48;;;;;;;9.95;3.35;;;4.70;99.90;;;;;;5494389;26;20012;-71
2024/04/18 01:41:16;;;;;;;9.55;4.22;;;4.70;99.90;;;;;;5508730;25;19998;-71
2024/04/18 01:43:41;;;;;;;13.25;3.92;;;4.70;99.90;;;;;;5492820;26;20010;-72
2024/04/18 01:46:07;;;;;;;10.65;3.92;;;4.60;99.90;;;;;;5495778;26;19994;-71
2024/04/18 01:48:33;;;;;;;11.18;4.40;;;4.60;99.90;;;;;;5493967;26;19995;-71
2024/04/18 01:50:58;;;;;;;9.68;3.75;;;4.60;99.90;;;;;;5495067;26;20009;-71
2024/04/18 01:53:24;;;;;;;13.32;4.00;;;4.60;99.90;;;;;;5495029;26;20066;-71
2024/04/18 01:55:49;;;;;;;11.73;3.92;;;4.60;99.90;;;;;;5496025;26;20010;-71
2024/04/18 01:58:15;;;;;;;17.27;4.43;;;4.40;99.90;;;;;;5494896;26;20014;-71
2024/04/18 02:00:43;;;;;;;9.10;3.88;;;4.50;99.90;;;;;;5494562;26;20013;-71
2024/04/18 02:03:09;;;;;;;13.70;4.32;;;4.30;99.90;;;;;;5495854;26;20002;-71
2024/04/18 02:05:35;;;;;;;12.00;3.88;;;4.40;99.90;;;;;;5494743;26;20077;-70
2024/04/18 02:08:01;;;;;;;10.43;4.03;;;4.40;99.90;;;;;;5496535;26;19990;-70
2024/04/18 02:10:27;;;;;;;11.18;3.58;;;4.40;99.90;;;;;;5492462;26;20320;-70
2024/04/18 02:12:56;;;;;;;10.68;3.83;;;4.40;99.90;;;;;;5494120;26;20013;-70
2024/04/18 02:15:23;;;;;;;10.85;3.85;;;4.60;99.90;;;;;;5494945;26;20006;-69
2024/04/18 02:17:49;;;;;;;11.88;3.85;;;4.50;99.90;;;;;;5494714;26;19993;-70
2024/04/18 02:20:15;;;;;;;8.80;3.80;;;4.50;99.90;;;;;;5495261;26;20002;-71
2024/04/18 02:22:41;;;;;;;10.02;4.07;;;4.50;99.90;;;;;;5494984;26;20006;-69
2024/04/18 02:25:08;;;;;;;13.00;4.07;;;4.50;99.90;;;;;;5495214;26;19994;-70
2024/04/18 02:27:38;;;;;;;14.05;4.10;;;4.50;99.90;;;;;;5495218;26;20051;-70
2024/04/18 02:30:05;;;;;;;12.57;3.80;;;4.50;99.90;;;;;;5494664;26;20029;-70
2024/04/18 02:32:31;;;;;;;16.55;3.78;;;4.50;99.90;;;;;;5493819;26;20002;-70
2024/04/18 02:34:56;;;;;;;12.77;4.18;;;4.40;99.90;;;;;;5495413;26;20001;-70
2024/04/18 02:37:22;;;;;;;7.40;3.10;;;4.50;99.90;;;;;;5496044;26;20450;-70
2024/04/18 02:39:48;;;;;;;9.23;3.60;;;4.40;99.90;;;;;;5494184;26;20004;-70
2024/04/18 02:42:16;;;;;;;8.80;3.25;;;4.40;99.90;;;;;;5495749;26;20002;-71
2024/04/18 02:44:41;;;;;;;9.02;3.83;;;4.30;99.90;;;;;;5493970;26;20039;-70
2024/04/18 02:47:08;;;;;;;9.52;3.65;;;4.40;99.90;;;;;;5494178;26;20007;-69
2024/04/18 02:49:33;;;;;;;7.95;3.33;;;4.30;99.90;;;;;;5494856;26;20034;-70
2024/04/18 02:51:59;;;;;;;12.30;3.42;;;4.30;99.90;;;;;;5495790;26;20086;-69
2024/04/18 02:54:24;;;;;;;7.72;3.40;;;4.30;99.90;;;;;;5493281;26;20010;-70
2024/04/18 02:56:50;;;;;;;11.25;3.10;;;4.20;99.90;;;;;;5493284;26;20011;-70
2024/04/18 02:59:16;;;;;;;8.52;3.60;;;4.20;99.90;;;;;;5490038;26;20436;-71
2024/04/18 03:01:41;;;;;;;10.45;3.70;;;4.20;99.90;;;;;;5494610;26;20048;-70
2024/04/18 03:04:07;;;;;;;11.50;3.67;;;4.20;99.90;;;;;;5495296;26;19998;-70
2024/04/18 03:06:32;;;;;;;13.32;3.72;;;4.20;99.90;;;;;;5492122;26;20039;-70
2024/04/18 03:08:58;;;;;;;13.60;3.83;;;4.20;99.90;;;;;;5494467;26;20005;-71
2024/04/18 03:11:23;;;;;;;8.55;3.70;;;4.20;99.90;;;;;;5494671;26;20010;-71
2024/04/18 03:13:49;;;;;;;7.93;3.83;;;4.20;99.90;;;;;;5494201;26;20009;-71
2024/04/18 03:16:15;;;;;;;8.55;3.88;;;4.20;99.90;;;;;;5495229;26;19998;-72
2024/04/18 03:18:44;;;;;;;12.63;3.50;;;4.20;99.90;;;;;;5493375;26;20005;-70
2024/04/18 03:21:10;;;;;;;9.80;3.97;;;4.20;99.90;;;;;;5494089;26;19998;-70
2024/04/18 03:23:36;;;;;;;11.88;3.53;;;4.20;99.90;;;;;;5494835;26;20006;-70
2024/04/18 03:26:02;;;;;;;8.45;3.67;;;4.20;99.90;;;;;;5494455;26;20013;-70
2024/04/18 03:28:27;;;;;;;12.55;4.00;;;4.20;99.90;;;;;;5489700;26;20001;-70
2024/04/18 03:30:53;;;;;;;14.25;3.90;;;4.10;99.90;;;;;;5490670;26;20988;-70
2024/04/18 03:33:18;;;;;;;13.10;4.32;;;4.20;99.90;;;;;;5494836;26;20010;-70
2024/04/18 03:35:44;;;;;;;8.50;3.47;;;4.20;99.90;;;;;;5494116;26;19990;-70
2024/04/18 03:38:10;;;;;;;8.98;3.90;;;4.30;99.90;;;;;;5494638;26;19994;-70
2024/04/18 03:40:38;;;;;;;12.55;4.25;;;4.20;99.90;;;;;;5493173;26;20804;-70
2024/04/18 03:43:04;;;;;;;8.65;4.07;;;4.20;99.90;;;;;;5492957;26;19998;-70
2024/04/18 03:45:30;;;;;;;10.10;3.63;;;4.10;99.90;;;;;;5494747;26;19994;-70
2024/04/18 03:47:56;;;;;;;11.85;4.32;;;4.10;99.90;;;;;;5494597;26;20043;-70
2024/04/18 03:50:21;;;;;;;10.40;3.60;;;4.10;99.90;;;;;;5491287;26;19995;-71
2024/04/18 03:52:47;;;;;;;9.75;3.58;;;4.10;99.90;;;;;;5491054;26;20062;-72
2024/04/18 03:55:13;;;;;;;12.18;4.05;;;4.10;99.90;;;;;;5493067;26;20010;-71
2024/04/18 03:57:38;;;;;;;10.48;3.75;;;4.10;99.90;;;;;;5487712;26;20010;-71
2024/04/18 04:00:04;;;;;;;14.82;6.03;;;4.10;99.90;;;;;;5491995;26;20002;-70
2024/04/18 04:02:32;;;;;;;17.75;5.13;;;4.10;99.90;;;;;;5491822;26;20016;-71
2024/04/18 04:04:58;;;;;;;11.85;5.32;;;4.00;99.90;;;;;;5493268;26;20030;-71
2024/04/18 04:07:24;;;;;;;11.52;4.88;;;4.00;99.90;;;;;;5493821;26;20000;-71
2024/04/18 04:09:49;;;;;;;12.70;4.65;;;4.00;99.90;;;;;;5495690;26;20009;-72
2024/04/18 04:12:15;;;;;;;8.75;4.30;;;4.00;99.90;;;;;;5498501;26;20006;-71
2024/04/18 04:14:41;;;;;;;10.15;3.85;;;4.00;99.90;;;;;;5497000;26;19998;-71
2024/04/18 04:17:08;;;;;;;9.52;4.20;;;3.90;99.90;;;;;;5498792;26;20006;-72
2024/04/18 04:19:33;;;;;;;11.45;4.90;;;3.90;99.90;;;;;;5499115;26;20030;-70
2024/04/18 04:21:59;;;;;;;13.52;4.40;;;3.90;99.90;;;;;;5500178;26;20040;-72
2024/04/18 04:24:25;;;;;;;9.05;3.90;;;3.90;99.90;;;;;;5499934;26;19994;-70
2024/04/18 04:26:51;;;;;;;15.00;4.70;;;3.80;99.90;;;;;;5498353;26;20002;-70
2024/04/18 04:29:17;;;;;;;9.80;4.57;;;3.80;99.90;;;;;;5496852;26;20017;-71
2024/04/18 04:31:42;;;;;;;10.38;4.50;;;3.80;99.90;;;;;;5499640;26;20006;-71
2024/04/18 04:34:10;;;;;;;12.77;4.82;;;3.80;99.90;;;;;;5500235;26;20002;-71
2024/04/18 04:36:35;;;;;;;14.88;4.85;;;3.80;99.90;;;;;;5490533;26;20013;-72
2024/04/18 04:39:01;;;;;;;10.27;4.85;;;3.80;99.90;;;;;;5494049;26;19994;-73
2024/04/18 04:41:26;;;;;;;13.43;5.30;;;3.80;99.90;;;;;;5488121;26;20032;-72
2024/04/18 04:43:52;;;;;;;14.57;5.57;;;3.80;99.90;;;;;;5496817;26;19998;-71
2024/04/18 04:46:18;;;;;;;14.38;5.38;;;3.90;99.90;;;;;;5496102;26;20013;-72
2024/04/18 04:48:44;;;;;;;14.43;5.28;;;3.90;99.90;;;;;;5499525;26;20318;-72
2024/04/18 04:51:09;;;;;;;12.93;4.95;;;3.90;99.90;;;;;;5498021;26;20038;-71
2024/04/18 04:53:35;;;;;;;10.73;4.78;;;3.90;99.90;;;;;;5498539;26;20020;-71
2024/04/18 04:56:01;;;;;;;13.48;5.13;;;3.90;99.90;;;;;;5499007;26;20017;-71
2024/04/18 04:58:27;;;;;;;11.20;5.32;;;3.90;99.90;;;;;;5498559;26;20082;-71
2024/04/18 05:00:53;;;;;;;16.23;5.50;;;3.90;99.90;;;;;;5497677;26;20002;-72
2024/04/18 05:03:20;;;;;;;14.75;5.20;;;3.90;99.90;;;;;;5498321;26;20043;-72
2024/04/18 05:05:45;;;;;;;11.05;5.25;;;3.90;99.90;;;;;;5493685;26;20055;-73
2024/04/18 05:08:11;;;;;;;15.15;5.25;;;4.00;99.90;;;;;;5497472;26;19994;-71
2024/04/18 05:10:41;;;;;;;13.00;5.22;;;4.10;99.90;;;;;;5491710;26;20013;-71
2024/04/18 05:13:07;;;;;;;11.00;5.82;;;4.00;99.90;;;;;;5493736;26;20038;-71
2024/04/18 05:15:33;;;;;;;20.83;5.32;;;4.10;99.90;;;;;;5495331;26;20033;-71
2024/04/18 05:17:58;;;;;;;17.92;5.80;;;4.10;99.90;;;;;;5497353;26;20025;-71
2024/04/18 05:20:24;;;;;;;15.18;6.03;;;4.20;99.90;;;;;;5496753;26;20622;-71
2024/04/18 05:22:49;;;;;;;15.75;5.90;;;4.20;99.90;;;;;;5498378;26;20009;-72
2024/04/18 05:25:15;;;;;;;14.25;6.70;;;4.30;99.90;;;;;;5498675;26;19998;-71
2024/04/18 05:27:44;;;;;;;21.40;6.07;;;4.40;99.90;;;;;;5496082;26;20038;-72
2024/04/18 05:32:54;;;;;;;;;;;4.40;99.90;;;;;;5496635;26;20002;-71
2024/04/18 05:35:20;;;;;;;15.48;6.07;;;4.50;99.90;;;;;;5497008;26;19923;-71
2024/04/18 05:37:45;;;;;;;14.40;6.45;;;4.60;99.90;;;;;;5497270;26;20014;-72
2024/04/18 05:40:11;;;;;;;16.00;6.35;;;4.60;99.90;;;;;;5493835;26;20009;-71
2024/04/18 05:42:36;;;;;;;15.73;7.30;;;4.60;99.90;;;;;;5495299;26;19998;-71
2024/04/18 05:45:05;;;;;;;21.45;7.63;;;4.60;99.90;;;;;;5492708;26;19998;-72
2024/04/18 05:47:30;;;;;;;18.23;7.40;;;4.70;99.90;;;;;;5487575;26;20013;-71
2024/04/18 05:49:56;;;;;;;17.35;7.28;;;4.90;99.90;;;;;;5495220;26;19994;-72
2024/04/18 05:52:22;;;;;;;14.60;6.65;;;4.90;99.90;;;;;;5495483;26;20008;-71
2024/04/18 05:54:47;;;;;;;16.15;6.55;;;4.90;99.90;;;;;;5492924;26;19994;-72
2024/04/18 05:57:13;;;;;;;15.00;6.88;;;4.90;99.90;;;;;;5497623;26;20010;-73
2024/04/18 05:59:38;;;;;;;12.63;6.25;;;5.10;99.90;;;;;;5494261;26;20042;-71
2024/04/18 06:02:04;;;;;;;14.13;6.13;;;5.10;99.90;;;;;;5497688;26;20459;-71
2024/04/18 06:04:29;;;;;;;11.02;5.93;;;5.20;99.90;;;;;;5497586;26;20006;-71
2024/04/18 06:06:55;;;;;;;25.50;6.50;;;5.20;99.90;;;;;;5495948;26;20020;-71
2024/04/18 06:09:20;;;;;;;18.98;6.75;;;5.30;99.90;;;;;;5496643;26;20002;-71
2024/04/18 06:11:48;;;;;;;13.98;6.07;;;5.40;99.90;;;;;;5497229;26;19998;-71
2024/04/18 06:14:13;;;;;;;21.38;6.35;;;5.50;99.90;;;;;;5497472;26;20024;-71
2024/04/18 06:16:39;;;;;;;10.95;5.90;;;5.60;99.90;;;;;;5492733;26;20001;-71
2024/04/18 06:19:04;;;;;;;12.55;5.95;;;5.70;99.90;;;;;;5495606;26;20017;-71
2024/04/18 06:21:30;;;;;;;10.48;5.50;;;5.80;99.90;;;;;;5497698;26;20001;-71
2024/04/18 06:23:56;;;;;;;13.25;5.55;;;5.80;99.90;;;;;;5497245;26;19998;-71
2024/04/18 06:26:22;;;;;;;10.68;5.22;;;5.90;99.90;;;;;;5498892;26;20193;-71
2024/04/18 06:28:47;;;;;;;13.25;5.50;;;6.00;99.90;;;;;;5496294;26;19998;-71
2024/04/18 06:31:16;;;;;;;14.25;5.13;;;6.00;99.90;;;;;;5494600;26;20017;-71
2024/04/18 06:33:43;;;;;;;16.55;5.22;;;6.20;99.90;;;;;;5493678;26;19994;-71
2024/04/18 06:36:10;;;;;;;9.73;4.45;;;6.10;99.90;;;;;;5491623;26;19998;-71
2024/04/18 06:38:36;;;;;;;8.98;4.20;;;6.20;99.90;;;;;;5491572;26;20006;-71
2024/04/18 06:41:04;;;;;;;8.75;3.72;;;6.30;99.90;;;;;;5496156;26;19990;-73
2024/04/18 06:43:30;;;;;;;7.03;3.13;;;6.40;99.90;;;;;;5492046;26;20010;-70
2024/04/18 06:45:56;;;;;;;6.10;2.50;;;6.50;99.90;;;;;;5491792;26;20011;-71
2024/04/18 06:48:21;;;;;;;7.60;3.08;;;6.50;99.90;;;;;;5492125;26;20010;-71
2024/04/18 06:50:47;;;;;;;5.38;2.42;;;6.70;99.90;;;;;;5493800;26;20012;-71
2024/04/18 06:53:12;;;;;;;7.55;2.50;;;6.70;99.90;;;;;;5498034;26;19990;-72
2024/04/18 06:55:38;;;;;;;4.97;2.50;;;6.80;99.90;;;;;;5494713;26;20395;-71
2024/04/18 06:58:04;;;;;;;11.90;3.00;;;6.90;99.90;;;;;;5496416;26;20010;-71
2024/04/18 07:00:29;;;;;;;8.85;2.40;;;7.10;99.90;;;;;;5497866;26;20002;-71
2024/04/18 07:02:55;;;;;;;8.73;2.40;;;7.20;99.90;;;;;;5497446;26;20454;-72
2024/04/18 07:05:23;;;;;;;7.65;2.42;;;7.30;99.90;;;;;;5496934;26;20017;-71
2024/04/18 07:07:53;;;;;;;6.05;2.13;;;7.30;99.90;;;;;;5495609;26;20010;-72
2024/04/18 07:10:18;;;;;;;5.30;2.10;;;7.40;99.90;;;;;;5496838;26;20002;-73
2024/04/18 07:12:44;;;;;;;3.83;1.92;;;7.40;99.90;;;;;;5496314;26;20025;-71
2024/04/18 07:15:10;;;;;;;5.47;1.88;;;7.40;99.90;;;;;;5495759;26;20001;-71
2024/04/18 07:17:35;;;;;;;2.90;1.55;;;7.40;99.90;;;;;;5491643;26;20065;-71
2024/04/18 07:20:01;;;;;;;4.30;1.83;;;7.50;99.90;;;;;;5497840;26;20004;-71
2024/04/18 07:22:26;;;;;;;5.70;1.88;;;7.60;99.90;;;;;;5494536;26;19994;-71
2024/04/18 07:24:52;;;;;;;6.32;1.90;;;7.60;99.90;;;;;;5493040;26;20016;-72
2024/04/18 07:27:17;;;;;;;3.58;1.85;;;7.80;99.90;;;;;;5491384;26;20009;-72
2024/04/18 07:29:43;;;;;;;5.75;1.73;;;8.00;99.90;;;;;;5489148;26;20008;-71
2024/04/18 07:32:08;;;;;;;3.72;1.70;;;8.10;99.90;;;;;;5493110;26;20002;-71
2024/04/18 07:34:34;;;;;;;3.75;1.88;;;8.20;99.90;;;;;;5492079;26;19998;-70
2024/04/18 07:37:00;;;;;;;8.15;1.63;;;8.30;99.90;;;;;;5493691;26;20001;-71
2024/04/18 07:39:26;;;;;;;5.18;1.83;;;8.50;99.90;;;;;;5484049;26;20013;-71
2024/04/18 07:41:52;;;;;;;4.93;2.20;;;8.70;99.90;;;;;;5488694;26;20012;-72
2024/04/18 07:44:17;;;;;;;4.10;2.13;;;8.80;99.90;;;;;;5494816;26;20443;-72
2024/04/18 07:46:44;;;;;;;5.38;2.10;;;8.80;99.90;;;;;;5496035;26;19994;-72
2024/04/18 07:49:10;;;;;;;3.78;1.98;;;8.80;99.90;;;;;;5492336;26;20017;-72
2024/04/18 07:51:37;;;;;;;4.45;2.10;;;8.80;99.90;;;;;;5492086;26;20047;-72
2024/04/18 07:54:02;;;;;;;5.93;2.35;;;8.70;99.90;;;;;;5493164;26;20012;-71
2024/04/18 07:56:28;;;;;;;6.25;2.42;;;8.80;99.90;;;;;;5497250;26;19998;-70
2024/04/18 07:58:54;;;;;;;6.22;2.65;;;8.90;99.90;;;;;;5492927;26;20494;-71
2024/04/18 08:01:19;;;;;;;4.78;2.33;;;9.00;99.90;;;;;;5488757;26;20006;-71
2024/04/18 08:03:45;;;;;;;5.28;2.08;;;9.40;99.90;;;;;;5497125;26;19995;-72
2024/04/18 08:06:10;;;;;;;4.22;2.50;;;9.60;99.90;;;;;;5495943;26;20013;-71
2024/04/18 08:08:36;;;;;;;8.43;2.75;;;9.70;99.90;;;;;;5493579;26;20005;-71
2024/04/18 08:11:01;;;;;;;8.00;2.63;;;9.90;99.90;;;;;;5495271;26;20009;-70
2024/04/18 08:13:27;;;;;;;6.13;2.58;;;10.10;99.90;;;;;;5493917;26;19994;-72
2024/04/18 08:15:53;;;;;;;5.25;2.08;;;10.30;99.90;;;;;;5495062;26;20052;-71
2024/04/18 08:18:19;;;;;;;4.97;1.85;;;10.40;99.90;;;;;;5495763;26;21351;-72
2024/04/18 08:20:46;;;;;;;4.43;1.50;;;10.30;99.90;;;;;;5494894;26;19994;-70
2024/04/18 08:23:11;;;;;;;3.17;1.20;;;10.10;99.90;;;;;;5496278;26;20051;-72
2024/04/18 08:25:37;;;;;;;2.53;1.52;;;9.90;99.90;;;;;;5495562;26;19998;-71
2024/04/18 08:28:05;;;;;;;5.20;1.65;;;9.80;99.90;;;;;;5495802;26;20010;-71
2024/04/18 08:30:31;;;;;;;5.07;1.65;;;9.70;99.90;;;;;;5495575;26;20009;-71
2024/04/18 08:32:56;;;;;;;1.58;1.15;;;9.70;99.90;;;;;;5496567;26;20013;-72
2024/04/18 08:35:22;;;;;;;7.40;1.40;;;9.80;99.90;;;;;;5495210;26;20017;-70
2024/04/18 08:37:48;;;;;;;2.70;1.55;;;9.80;99.90;;;;;;5492963;26;20021;-71
2024/04/18 08:40:13;;;;;;;3.47;1.38;;;9.80;99.90;;;;;;5493655;26;19994;-71
2024/04/18 08:42:39;;;;;;;6.00;1.30;;;9.80;99.90;;;;;;5494279;26;20380;-72
2024/04/18 08:45:08;;;;;;;4.18;1.17;;;9.70;99.90;;;;;;5496104;26;19994;-71
2024/04/18 08:47:34;;;;;;;5.05;1.38;;;9.60;99.90;;;;;;5495093;26;19998;-72
2024/04/18 08:50:00;;;;;;;3.30;1.35;;;9.50;99.90;;;;;;5495878;26;19994;-71
2024/04/18 08:52:30;;;;;;;2.50;1.40;;;9.40;99.90;;;;;;5497669;26;20017;-71
2024/04/18 08:54:55;;;;;;;4.78;1.50;;;9.30;99.90;;;;;;5498643;26;20038;-71
2024/04/18 08:57:24;;;;;;;4.80;1.75;;;9.20;99.90;;;;;;5498227;26;19998;-73
2024/04/18 08:59:58;;;;;;;3.38;1.63;;;9.10;99.90;;;;;;5498375;26;20006;-70
2024/04/18 09:02:24;;;;;;;;;;;9.00;99.90;;;;;;5497748;26;19994;-71
2024/04/18 09:04:50;;;;;;;7.30;1.77;;;8.90;99.90;;;;;;5494746;26;19931;-71
2024/04/18 09:07:15;;;;;;;5.10;1.63;;;8.90;99.90;;;;;;5492699;26;19994;-71
2024/04/18 09:09:41;;;;;;;3.90;1.60;;;9.00;99.90;;;;;;5495670;26;20400;-71
2024/04/18 09:12:07;;;;;;;5.25;1.80;;;9.00;99.90;;;;;;5495630;26;20076;-71
2024/04/18 09:14:32;;;;;;;5.13;1.75;;;9.00;99.90;;;;;;5497176;26;20449;-71
2024/04/18 09:16:58;;;;;;;3.53;1.40;;;9.10;99.90;;;;;;5497183;26;20014;-70
2024/04/18 09:19:24;;;;;;;4.65;1.20;;;9.20;99.90;;;;;;5498930;26;19998;-70
2024/04/18 09:21:50;;;;;;;2.38;1.10;;;9.20;99.90;;;;;;5499671;26;20004;-72
2024/04/18 09:24:15;;;;;;;5.20;1.40;;;9.30;99.90;;;;;;5497763;26;20002;-72
2024/04/18 09:26:41;;;;;;;3.60;1.33;;;9.40;99.90;;;;;;5491230;26;20013;-71
2024/04/18 09:29:07;;;;;;;3.92;1.10;;;9.80;99.90;;;;;;5497582;26;20006;-72
2024/04/18 09:31:32;;;;;;;3.83;1.35;;;10.10;99.90;;;;;;5496172;26;20533;-71
2024/04/18 09:33:58;;;;;;;4.70;1.50;;;10.40;99.90;;;;;;5493673;26;20009;-71
2024/04/18 09:36:24;;;;;;;6.25;1.40;;;10.50;99.90;;;;;;5497436;26;20002;-71
2024/04/18 09:38:50;;;;;;;5.47;1.55;;;10.50;99.90;;;;;;5495187;26;20005;-72
2024/04/18 09:41:20;;;;;;;3.80;1.50;;;10.60;99.90;;;;;;5496058;26;19999;-72
2024/04/18 09:43:56;;;;;;;6.43;1.25;;;10.50;99.90;;;;;;5496576;26;19994;-70
2024/04/18 09:46:23;;;;;;;4.97;1.38;;;10.40;99.90;;;;;;5498332;26;21753;-71
2024/04/18 09:48:49;;;;;;;4.65;1.20;;;10.20;99.90;;;;;;5493645;26;20446;-71
2024/04/18 09:51:16;;;;;;;6.25;1.70;;;10.00;99.90;;;;;;5498440;26;20009;-71
2024/04/18 09:53:44;;;;;;;8.55;1.50;;;9.80;99.90;;;;;;5497791;26;20447;-72
2024/04/18 09:56:10;;;;;;;5.38;1.55;;;9.70;99.90;;;;;;5497467;26;19998;-71
2024/04/18 09:58:36;;;;;;;3.90;1.45;;;9.60;99.90;;;;;;5497402;26;19998;-71
2024/04/18 10:01:02;;;;;;;9.98;1.80;;;9.60;99.90;;;;;;5498871;26;19998;-70
2024/04/18 10:03:28;;;;;;;6.75;1.92;;;9.60;99.90;;;;;;5495654;26;20017;-71
2024/04/18 10:05:58;;;;;;;4.65;1.63;;;9.80;99.90;;;;;;5498130;26;20442;-71
2024/04/18 10:08:29;;;;;;;4.95;1.40;;;10.20;99.90;;;;;;5498157;26;20009;-72
2024/04/18 10:10:55;;;;;;;6.55;1.67;;;10.40;99.90;;;;;;5495627;26;20009;-71
2024/04/18 10:13:24;;;;;;;3.10;1.45;;;10.70;99.90;;;;;;5496379;26;20006;-73
2024/04/18 10:15:49;;;;;;;6.07;1.75;;;11.10;99.90;;;;;;5495728;26;20002;-72
2024/04/18 10:18:16;;;;;;;6.80;1.33;;;11.60;99.90;;;;;;5497972;26;20078;-72
2024/04/18 10:20:43;;;;;;;6.18;1.33;;;11.90;99.90;;;;;;5497325;26;19998;-71
2024/04/18 10:23:16;;;;;;;3.45;1.05;;;12.20;99.90;;;;;;5497647;26;20048;-72
2024/04/18 10:25:44;;;;;;;5.25;1.25;;;12.30;99.90;;;;;;5498601;26;20021;-72
2024/04/18 10:28:20;;;;;;;3.35;1.30;;;12.20;99.90;;;;;;5495813;26;20002;-71
2024/04/18 10:30:47;;;;;;;4.72;0.90;;;11.80;99.90;;;;;;5498215;26;20002;-72
2024/04/18 10:33:12;;;;;;;3.30;1.02;;;11.50;99.90;;;;;;5488932;26;20494;-71
2024/04/18 10:35:38;;;;;;;1.50;0.77;;;11.10;99.90;;;;;;5487781;26;20009;-72
2024/04/18 10:38:04;;;;;;;3.00;0.85;;;10.70;99.90;;;;;;5496384;26;20025;-71
2024/04/18 10:40:31;;;;;;;2.85;1.00;;;10.30;99.90;;;;;;5495946;26;20007;-70
2024/04/18 10:43:14;;;;;;;3.63;1.00;;;10.00;99.90;;;;;;5498052;26;20026;-72
2024/04/18 10:45:41;;;;;;;3.83;1.45;;;9.70;99.90;;;;;;5496439;26;20009;-71
2024/04/18 10:48:07;;;;;;;5.68;1.45;;;9.50;99.90;;;;;;5495685;26;20759;-72
2024/04/18 10:50:35;;;;;;;3.45;1.42;;;9.50;99.90;;;;;;5494242;26;20046;-75
2024/04/18 10:53:03;;;;;;;4.25;1.30;;;9.40;99.90;;;;;;5485060;26;19999;-72
2024/04/18 10:55:29;;;;;;;3.55;1.70;;;9.30;99.90;;;;;;5489127;26;20013;-72
2024/04/18 10:57:55;;;;;;;3.00;1.08;;;9.30;99.90;;;;;;5495237;26;19994;-72
2024/04/18 11:00:20;;;;;;;2.00;1.02;;;9.30;99.90;;;;;;5495971;26;20047;-72
2024/04/18 11:02:46;;;;;;;2.70;1.10;;;9.40;99.90;;;;;;5493031;26;20006;-70
2024/04/18 11:05:11;;;;;;;5.90;1.25;;;9.50;99.90;;;;;;5497248;26;20006;-72
2024/04/18 11:07:38;;;;;;;2.58;1.25;;;9.60;99.90;;;;;;5496694;26;19998;-71
2024/04/18 11:10:04;;;;;;;4.35;1.20;;;9.80;99.90;;;;;;5497852;26;20013;-71
2024/04/18 11:12:29;;;;;;;2.60;0.88;;;10.00;99.90;;;;;;5495750;26;19998;-72
2024/04/18 11:14:55;;;;;;;3.90;1.00;;;10.10;99.90;;;;;;5496942;26;20005;-72
2024/04/18 11:17:20;;;;;;;1.67;0.90;;;10.00;99.90;;;;;;5490205;26;20010;-71
2024/04/18 11:19:46;;;;;;;1.52;0.90;;;10.00;99.90;;;;;;5485725;26;19995;-73
2024/04/18 11:22:12;;;;;;;3.97;0.90;;;10.00;99.90;;;;;;5482880;26;20003;-72
2024/04/18 11:24:40;;;;;;;2.90;1.00;;;10.00;99.90;;;;;;5493835;26;20005;-70
2024/04/18 11:27:06;;;;;;;7.00;1.13;;;10.20;99.90;;;;;;5495127;26;20338;-71
2024/04/18 11:29:32;;;;;;;2.38;0.90;;;10.70;99.90;;;;;;5486978;26;19990;-70
2024/04/18 11:32:08;;;;;;;5.38;1.27;;;11.40;99.90;;;;;;5492935;26;20044;-71
2024/04/18 11:34:35;;;;;;;4.82;1.20;;;12.00;99.90;;;;;;5491544;26;20032;-71
2024/04/18 11:37:03;;;;;;;2.00;0.90;;;12.40;99.90;;;;;;5494362;26;20017;-70
2024/04/18 11:39:29;;;;;;;5.75;2.42;;;12.80;99.90;;;;;;5492990;26;20005;-71
2024/04/18 11:41:54;;;;;;;8.82;1.77;;;12.70;99.90;;;;;;5495136;26;20013;-70
2024/04/18 11:44:20;;;;;;;4.97;2.35;;;12.50;99.90;;;;;;5494698;26;20038;-70
2024/04/18 11:46:48;;;;;;;3.83;1.52;;;12.20;99.90;;;;;;5489623;26;20013;-68
2024/04/18 11:49:14;;;;;;;5.20;1.92;;;11.90;99.90;;;;;;5494895;26;19998;-71
2024/04/18 11:51:39;;;;;;;4.32;1.38;;;11.70;99.90;;;;;;5491765;26;19994;-68
2024/04/18 11:54:05;;;;;;;4.60;1.17;;;11.50;99.90;;;;;;5475303;26;20051;-68
2024/04/18 11:56:30;;;;;;;3.65;1.10;;;11.40;99.90;;;;;;5484815;26;20005;-72
2024/04/18 11:58:58;;;;;;;8.13;1.27;;;11.70;99.90;;;;;;5484677;26;19998;-69
2024/04/18 12:01:24;;;;;;;6.20;1.10;;;11.60;99.90;;;;;;5491636;26;20430;-72
2024/04/18 12:03:49;;;;;;;3.42;1.40;;;11.50;99.90;;;;;;5489569;26;20056;-73
2024/04/18 12:06:15;;;;;;;5.07;1.05;;;11.40;99.90;;;;;;5491602;26;20009;-70
2024/04/18 12:08:40;;;;;;;2.83;1.00;;;11.20;99.90;;;;;;5490770;26;20013;-70
2024/04/18 12:11:06;;;;;;;4.03;0.90;;;11.30;99.90;;;;;;5492325;26;20014;-70
2024/04/18 12:13:32;;;;;;;4.53;1.13;;;11.40;99.90;;;;;;5495252;26;19998;-69
2024/04/18 12:15:57;;;;;;;4.93;1.00;;;11.30;99.90;;;;;;5493181;26;20006;-70
2024/04/18 12:18:23;;;;;;;3.22;0.90;;;11.20;99.90;;;;;;5491859;26;20461;-71
2024/04/18 12:20:49;;;;;;;5.63;1.00;;;11.20;99.90;;;;;;5487895;26;20002;-71
2024/04/18 12:23:14;;;;;;;4.13;1.00;;;11.00;99.90;;;;;;5493613;26;20013;-70
2024/04/18 12:25:40;;;;;;;1.95;0.90;;;11.20;99.90;;;;;;5489685;26;20013;-69
2024/04/18 12:28:05;;;;;;;2.13;1.10;;;11.70;99.90;;;;;;5492711;26;19994;-70
2024/04/18 12:30:32;;;;;;;5.90;1.00;;;12.30;99.90;;;;;;5491366;26;19998;-71
2024/04/18 12:32:57;;;;;;;3.67;1.10;;;13.10;99.90;;;;;;5492177;26;20006;-69
2024/04/18 12:35:23;;;;;;;2.88;0.93;;;13.60;99.90;;;;;;5498194;26;20008;-70
2024/04/18 12:37:49;;;;;;;2.65;1.20;;;14.20;99.90;;;;;;5499237;26;19998;-70
2024/04/18 12:40:15;;;;;;;4.82;0.93;;;14.30;99.90;;;;;;5498522;26;20071;-70
2024/04/18 12:42:40;;;;;;;4.15;1.27;;;14.00;99.90;;;;;;5494934;26;20014;-70
2024/04/18 12:45:06;;;;;;;6.20;1.17;;;13.50;99.90;;;;;;5495475;26;19995;-71
2024/04/18 12:47:32;;;;;;;3.28;0.93;;;13.20;99.90;;;;;;5494760;26;19994;-70